sensor_id;sensor_type;location;lat;lon;timestamp;P1;durP1;ratioP1;P2;durP2;ratioP2
74344;SDS011;62776;50.518;6.732;2023-06-10T00:04:00;4.38;;;3.63;;
74344;SDS011;62776;50.518;6.732;2023-06-10T00:06:47;3.92;;;3.45;;
74344;SDS011;62776;50.518;6.732;2023-06-10T00:09:35;4.03;;;3.67;;
74344;SDS011;62776;50.518;6.732;2023-06-10T00:12:22;4.03;;;3.63;;
74344;SDS011;62776;50.518;6.732;2023-06-10T00:15:08;3.80;;;3.35;;
74344;SDS011;62776;50.518;6.732;2023-06-10T00:17:55;4.40;;;4.00;;
74344;SDS011;62776;50.518;6.732;2023-06-10T00:20:41;3.42;;;3.13;;
74344;SDS011;62776;50.518;6.732;2023-06-10T00:23:30;4.22;;;3.53;;
74344;SDS011;62776;50.518;6.732;2023-06-10T00:26:16;3.42;;;3.13;;
74344;SDS011;62776;50.518;6.732;2023-06-10T00:29:05;4.38;;;3.30;;
74344;SDS011;62776;50.518;6.732;2023-06-10T00:31:52;3.30;;;3.00;;
74344;SDS011;62776;50.518;6.732;2023-06-10T00:34:42;3.58;;;3.28;;
74344;SDS011;62776;50.518;6.732;2023-06-10T00:37:28;3.42;;;3.20;;
74344;SDS011;62776;50.518;6.732;2023-06-10T00:40:15;4.20;;;3.85;;
74344;SDS011;62776;50.518;6.732;2023-06-10T00:43:02;5.32;;;3.88;;
74344;SDS011;62776;50.518;6.732;2023-06-10T00:45:49;3.78;;;3.47;;
74344;SDS011;62776;50.518;6.732;2023-06-10T00:48:36;4.75;;;3.10;;
74344;SDS011;62776;50.518;6.732;2023-06-10T00:51:25;3.58;;;3.28;;
74344;SDS011;62776;50.518;6.732;2023-06-10T00:54:11;3.90;;;3.50;;
74344;SDS011;62776;50.518;6.732;2023-06-10T00:57:00;3.83;;;3.47;;
74344;SDS011;62776;50.518;6.732;2023-06-10T00:59:48;4.57;;;3.63;;
74344;SDS011;62776;50.518;6.732;2023-06-10T01:02:36;3.42;;;3.13;;
74344;SDS011;62776;50.518;6.732;2023-06-10T01:05:23;3.65;;;3.35;;
74344;SDS011;62776;50.518;6.732;2023-06-10T01:08:26;3.63;;;3.33;;
74344;SDS011;62776;50.518;6.732;2023-06-10T01:12:05;3.55;;;3.28;;
74344;SDS011;62776;50.518;6.732;2023-06-10T01:14:35;4.10;;;3.03;;
74344;SDS011;62776;50.518;6.732;2023-06-10T01:17:25;4.22;;;3.05;;
74344;SDS011;62776;50.518;6.732;2023-06-10T01:20:13;3.42;;;3.13;;
74344;SDS011;62776;50.518;6.732;2023-06-10T01:23:00;3.85;;;3.47;;
74344;SDS011;62776;50.518;6.732;2023-06-10T01:25:49;5.55;;;2.92;;
74344;SDS011;62776;50.518;6.732;2023-06-10T01:28:48;3.42;;;3.13;;
74344;SDS011;62776;50.518;6.732;2023-06-10T01:31:54;3.83;;;3.47;;
74344;SDS011;62776;50.518;6.732;2023-06-10T01:34:51;4.88;;;3.05;;
74344;SDS011;62776;50.518;6.732;2023-06-10T01:37:41;3.47;;;3.17;;
74344;SDS011;62776;50.518;6.732;2023-06-10T01:40:30;3.22;;;2.90;;
74344;SDS011;62776;50.518;6.732;2023-06-10T01:43:17;3.65;;;3.35;;
74344;SDS011;62776;50.518;6.732;2023-06-10T01:46:06;4.63;;;3.45;;
74344;SDS011;62776;50.518;6.732;2023-06-10T01:48:53;3.53;;;3.22;;
74344;SDS011;62776;50.518;6.732;2023-06-10T01:51:40;5.88;;;3.40;;
74344;SDS011;62776;50.518;6.732;2023-06-10T01:54:26;3.58;;;2.78;;
74344;SDS011;62776;50.518;6.732;2023-06-10T01:57:15;4.00;;;3.58;;
74344;SDS011;62776;50.518;6.732;2023-06-10T02:00:01;4.13;;;3.50;;
74344;SDS011;62776;50.518;6.732;2023-06-10T02:02:48;3.85;;;3.55;;
74344;SDS011;62776;50.518;6.732;2023-06-10T02:05:36;4.43;;;3.47;;
74344;SDS011;62776;50.518;6.732;2023-06-10T02:08:22;3.72;;;2.97;;
74344;SDS011;62776;50.518;6.732;2023-06-10T02:11:08;3.60;;;3.33;;
74344;SDS011;62776;50.518;6.732;2023-06-10T02:13:55;4.97;;;3.50;;
74344;SDS011;62776;50.518;6.732;2023-06-10T02:16:41;3.88;;;3.58;;
74344;SDS011;62776;50.518;6.732;2023-06-10T02:19:31;3.45;;;3.22;;
74344;SDS011;62776;50.518;6.732;2023-06-10T02:22:22;4.15;;;3.20;;
74344;SDS011;62776;50.518;6.732;2023-06-10T02:25:14;3.20;;;2.97;;
74344;SDS011;62776;50.518;6.732;2023-06-10T02:28:02;3.40;;;3.10;;
74344;SDS011;62776;50.518;6.732;2023-06-10T02:30:48;3.47;;;3.20;;
74344;SDS011;62776;50.518;6.732;2023-06-10T02:33:35;3.47;;;3.17;;
74344;SDS011;62776;50.518;6.732;2023-06-10T02:36:26;3.88;;;3.33;;
74344;SDS011;62776;50.518;6.732;2023-06-10T02:39:12;3.38;;;3.08;;
74344;SDS011;62776;50.518;6.732;2023-06-10T02:41:59;3.95;;;3.50;;
74344;SDS011;62776;50.518;6.732;2023-06-10T02:44:45;3.88;;;3.50;;
74344;SDS011;62776;50.518;6.732;2023-06-10T02:47:31;5.32;;;3.22;;
74344;SDS011;62776;50.518;6.732;2023-06-10T02:50:18;3.63;;;3.30;;
74344;SDS011;62776;50.518;6.732;2023-06-10T02:53:04;3.58;;;3.15;;
74344;SDS011;62776;50.518;6.732;2023-06-10T02:55:52;3.65;;;3.08;;
74344;SDS011;62776;50.518;6.732;2023-06-10T02:58:44;3.70;;;3.00;;
74344;SDS011;62776;50.518;6.732;2023-06-10T03:01:31;3.58;;;3.28;;
74344;SDS011;62776;50.518;6.732;2023-06-10T03:04:18;3.60;;;3.30;;
74344;SDS011;62776;50.518;6.732;2023-06-10T03:07:05;3.58;;;3.28;;
74344;SDS011;62776;50.518;6.732;2023-06-10T03:09:52;3.55;;;3.08;;
74344;SDS011;62776;50.518;6.732;2023-06-10T03:12:54;3.55;;;3.25;;
74344;SDS011;62776;50.518;6.732;2023-06-10T03:15:46;2.75;;;2.55;;
74344;SDS011;62776;50.518;6.732;2023-06-10T03:21:28;4.38;;;3.55;;
74344;SDS011;62776;50.518;6.732;2023-06-10T03:24:15;4.35;;;3.78;;
74344;SDS011;62776;50.518;6.732;2023-06-10T03:27:03;3.10;;;2.90;;
74344;SDS011;62776;50.518;6.732;2023-06-10T03:29:50;4.10;;;3.70;;
74344;SDS011;62776;50.518;6.732;2023-06-10T03:32:36;3.38;;;3.08;;
74344;SDS011;62776;50.518;6.732;2023-06-10T03:35:25;3.30;;;3.00;;
74344;SDS011;62776;50.518;6.732;2023-06-10T03:38:12;3.70;;;3.35;;
74344;SDS011;62776;50.518;6.732;2023-06-10T03:41:00;3.60;;;3.20;;
74344;SDS011;62776;50.518;6.732;2023-06-10T03:43:46;3.67;;;3.30;;
74344;SDS011;62776;50.518;6.732;2023-06-10T03:46:33;4.45;;;4.05;;
74344;SDS011;62776;50.518;6.732;2023-06-10T03:49:19;3.83;;;3.53;;
74344;SDS011;62776;50.518;6.732;2023-06-10T03:52:06;3.85;;;3.45;;
74344;SDS011;62776;50.518;6.732;2023-06-10T03:54:53;3.15;;;2.95;;
74344;SDS011;62776;50.518;6.732;2023-06-10T03:57:40;3.63;;;3.33;;
74344;SDS011;62776;50.518;6.732;2023-06-10T04:00:35;4.60;;;3.15;;
74344;SDS011;62776;50.518;6.732;2023-06-10T04:03:27;3.75;;;3.45;;
74344;SDS011;62776;50.518;6.732;2023-06-10T04:06:13;3.40;;;3.10;;
74344;SDS011;62776;50.518;6.732;2023-06-10T04:09:02;3.75;;;3.45;;
74344;SDS011;62776;50.518;6.732;2023-06-10T04:11:51;3.55;;;3.25;;
74344;SDS011;62776;50.518;6.732;2023-06-10T04:14:38;4.57;;;3.83;;
74344;SDS011;62776;50.518;6.732;2023-06-10T04:17:25;3.53;;;3.22;;
74344;SDS011;62776;50.518;6.732;2023-06-10T04:20:12;3.90;;;3.55;;
74344;SDS011;62776;50.518;6.732;2023-06-10T04:23:05;6.63;;;3.67;;
74344;SDS011;62776;50.518;6.732;2023-06-10T04:25:52;3.55;;;3.25;;
74344;SDS011;62776;50.518;6.732;2023-06-10T04:28:40;4.85;;;3.50;;
74344;SDS011;62776;50.518;6.732;2023-06-10T04:31:27;2.85;;;2.63;;
74344;SDS011;62776;50.518;6.732;2023-06-10T04:34:22;3.97;;;3.67;;
74344;SDS011;62776;50.518;6.732;2023-06-10T04:37:08;4.55;;;3.25;;
74344;SDS011;62776;50.518;6.732;2023-06-10T04:40:00;3.33;;;3.13;;
74344;SDS011;62776;50.518;6.732;2023-06-10T04:42:48;3.92;;;3.38;;
74344;SDS011;62776;50.518;6.732;2023-06-10T04:45:35;3.33;;;3.13;;
74344;SDS011;62776;50.518;6.732;2023-06-10T04:48:22;4.90;;;3.60;;
74344;SDS011;62776;50.518;6.732;2023-06-10T04:51:18;3.78;;;3.50;;
74344;SDS011;62776;50.518;6.732;2023-06-10T04:54:05;3.45;;;3.15;;
74344;SDS011;62776;50.518;6.732;2023-06-10T04:56:54;3.70;;;3.30;;
74344;SDS011;62776;50.518;6.732;2023-06-10T04:59:41;3.83;;;3.40;;
74344;SDS011;62776;50.518;6.732;2023-06-10T05:02:27;3.60;;;3.30;;
74344;SDS011;62776;50.518;6.732;2023-06-10T05:05:14;4.07;;;3.25;;
74344;SDS011;62776;50.518;6.732;2023-06-10T05:08:01;3.30;;;2.90;;
74344;SDS011;62776;50.518;6.732;2023-06-10T05:10:48;3.33;;;3.13;;
74344;SDS011;62776;50.518;6.732;2023-06-10T05:13:41;3.53;;;3.30;;
74344;SDS011;62776;50.518;6.732;2023-06-10T05:16:31;4.25;;;3.20;;
74344;SDS011;62776;50.518;6.732;2023-06-10T05:19:17;5.15;;;3.00;;
74344;SDS011;62776;50.518;6.732;2023-06-10T05:22:11;3.20;;;2.90;;
74344;SDS011;62776;50.518;6.732;2023-06-10T05:25:05;3.50;;;3.20;;
74344;SDS011;62776;50.518;6.732;2023-06-10T05:27:54;2.95;;;2.75;;
74344;SDS011;62776;50.518;6.732;2023-06-10T05:30:40;3.50;;;3.20;;
74344;SDS011;62776;50.518;6.732;2023-06-10T05:33:28;3.60;;;3.10;;
74344;SDS011;62776;50.518;6.732;2023-06-10T05:36:21;3.42;;;2.65;;
74344;SDS011;62776;50.518;6.732;2023-06-10T05:39:10;3.83;;;3.17;;
74344;SDS011;62776;50.518;6.732;2023-06-10T05:41:56;3.25;;;2.85;;
74344;SDS011;62776;50.518;6.732;2023-06-10T05:44:45;3.20;;;2.97;;
74344;SDS011;62776;50.518;6.732;2023-06-10T05:47:33;3.10;;;2.90;;
74344;SDS011;62776;50.518;6.732;2023-06-10T05:50:19;3.35;;;2.50;;
74344;SDS011;62776;50.518;6.732;2023-06-10T05:53:05;3.17;;;2.90;;
74344;SDS011;62776;50.518;6.732;2023-06-10T05:55:53;2.75;;;2.55;;
74344;SDS011;62776;50.518;6.732;2023-06-10T05:58:45;4.78;;;2.80;;
74344;SDS011;62776;50.518;6.732;2023-06-10T06:01:37;3.28;;;2.97;;
74344;SDS011;62776;50.518;6.732;2023-06-10T06:04:25;3.35;;;2.83;;
74344;SDS011;62776;50.518;6.732;2023-06-10T06:07:28;3.22;;;2.72;;
74344;SDS011;62776;50.518;6.732;2023-06-10T06:10:16;2.53;;;2.30;;
74344;SDS011;62776;50.518;6.732;2023-06-10T06:13:03;3.22;;;3.00;;
74344;SDS011;62776;50.518;6.732;2023-06-10T06:15:51;3.03;;;2.83;;
74344;SDS011;62776;50.518;6.732;2023-06-10T06:18:37;3.55;;;2.72;;
74344;SDS011;62776;50.518;6.732;2023-06-10T06:21:24;4.38;;;2.63;;
74344;SDS011;62776;50.518;6.732;2023-06-10T06:24:10;2.83;;;2.63;;
74344;SDS011;62776;50.518;6.732;2023-06-10T06:27:02;3.20;;;2.90;;
74344;SDS011;62776;50.518;6.732;2023-06-10T06:29:54;4.40;;;2.63;;
74344;SDS011;62776;50.518;6.732;2023-06-10T06:32:52;2.70;;;2.50;;
74344;SDS011;62776;50.518;6.732;2023-06-10T06:35:39;3.17;;;2.65;;
74344;SDS011;62776;50.518;6.732;2023-06-10T06:38:26;4.43;;;3.20;;
74344;SDS011;62776;50.518;6.732;2023-06-10T06:41:26;3.33;;;3.03;;
74344;SDS011;62776;50.518;6.732;2023-06-10T06:44:13;3.38;;;2.70;;
74344;SDS011;62776;50.518;6.732;2023-06-10T06:46:59;4.05;;;2.88;;
74344;SDS011;62776;50.518;6.732;2023-06-10T06:49:48;3.33;;;3.05;;
74344;SDS011;62776;50.518;6.732;2023-06-10T06:52:36;3.53;;;3.20;;
74344;SDS011;62776;50.518;6.732;2023-06-10T06:55:29;2.90;;;2.47;;
74344;SDS011;62776;50.518;6.732;2023-06-10T06:58:16;2.47;;;2.28;;
74344;SDS011;62776;50.518;6.732;2023-06-10T07:01:04;3.08;;;2.88;;
74344;SDS011;62776;50.518;6.732;2023-06-10T07:03:50;4.10;;;3.13;;
74344;SDS011;62776;50.518;6.732;2023-06-10T07:06:43;3.10;;;2.80;;
74344;SDS011;62776;50.518;6.732;2023-06-10T07:09:29;3.95;;;2.13;;
74344;SDS011;62776;50.518;6.732;2023-06-10T07:12:17;2.92;;;2.72;;
74344;SDS011;62776;50.518;6.732;2023-06-10T07:15:11;3.20;;;3.00;;
74344;SDS011;62776;50.518;6.732;2023-06-10T07:18:00;2.85;;;2.60;;
74344;SDS011;62776;50.518;6.732;2023-06-10T07:20:46;3.00;;;2.80;;
74344;SDS011;62776;50.518;6.732;2023-06-10T07:23:48;3.15;;;2.85;;
74344;SDS011;62776;50.518;6.732;2023-06-10T07:26:38;2.65;;;2.45;;
74344;SDS011;62776;50.518;6.732;2023-06-10T07:29:24;2.92;;;2.60;;
74344;SDS011;62776;50.518;6.732;2023-06-10T07:32:11;3.30;;;3.10;;
74344;SDS011;62776;50.518;6.732;2023-06-10T07:35:02;3.03;;;2.80;;
74344;SDS011;62776;50.518;6.732;2023-06-10T07:37:53;2.75;;;2.55;;
74344;SDS011;62776;50.518;6.732;2023-06-10T07:40:41;3.17;;;2.90;;
74344;SDS011;62776;50.518;6.732;2023-06-10T07:43:33;2.75;;;2.50;;
74344;SDS011;62776;50.518;6.732;2023-06-10T07:46:20;2.60;;;2.40;;
74344;SDS011;62776;50.518;6.732;2023-06-10T07:49:13;2.60;;;2.40;;
74344;SDS011;62776;50.518;6.732;2023-06-10T07:52:00;3.25;;;2.55;;
74344;SDS011;62776;50.518;6.732;2023-06-10T07:54:47;3.40;;;2.95;;
74344;SDS011;62776;50.518;6.732;2023-06-10T07:57:34;3.05;;;2.70;;
74344;SDS011;62776;50.518;6.732;2023-06-10T08:00:21;4.38;;;2.58;;
74344;SDS011;62776;50.518;6.732;2023-06-10T08:03:07;3.10;;;2.80;;
74344;SDS011;62776;50.518;6.732;2023-06-10T08:06:09;3.08;;;2.70;;
74344;SDS011;62776;50.518;6.732;2023-06-10T08:08:56;4.07;;;2.85;;
74344;SDS011;62776;50.518;6.732;2023-06-10T08:11:43;3.72;;;3.17;;
74344;SDS011;62776;50.518;6.732;2023-06-10T08:14:31;2.95;;;2.53;;
74344;SDS011;62776;50.518;6.732;2023-06-10T08:17:19;2.70;;;2.50;;
74344;SDS011;62776;50.518;6.732;2023-06-10T08:20:05;3.85;;;2.78;;
74344;SDS011;62776;50.518;6.732;2023-06-10T08:22:52;3.08;;;2.67;;
74344;SDS011;62776;50.518;6.732;2023-06-10T08:25:42;2.78;;;2.58;;
74344;SDS011;62776;50.518;6.732;2023-06-10T08:28:29;3.05;;;2.72;;
74344;SDS011;62776;50.518;6.732;2023-06-10T08:31:15;3.33;;;2.85;;
74344;SDS011;62776;50.518;6.732;2023-06-10T08:34:01;3.00;;;2.70;;
74344;SDS011;62776;50.518;6.732;2023-06-10T08:36:49;2.70;;;2.50;;
74344;SDS011;62776;50.518;6.732;2023-06-10T08:39:41;4.13;;;2.53;;
74344;SDS011;62776;50.518;6.732;2023-06-10T08:42:28;2.85;;;2.55;;
74344;SDS011;62776;50.518;6.732;2023-06-10T08:45:39;2.60;;;2.40;;
74344;SDS011;62776;50.518;6.732;2023-06-10T08:48:32;3.38;;;2.33;;
74344;SDS011;62776;50.518;6.732;2023-06-10T08:51:23;3.15;;;2.67;;
74344;SDS011;62776;50.518;6.732;2023-06-10T08:54:32;2.65;;;2.45;;
74344;SDS011;62776;50.518;6.732;2023-06-10T08:57:27;5.15;;;3.10;;
74344;SDS011;62776;50.518;6.732;2023-06-10T09:00:15;3.10;;;2.58;;
74344;SDS011;62776;50.518;6.732;2023-06-10T09:03:03;4.60;;;2.45;;
74344;SDS011;62776;50.518;6.732;2023-06-10T09:05:53;2.78;;;2.58;;
74344;SDS011;62776;50.518;6.732;2023-06-10T09:08:42;2.95;;;2.70;;
74344;SDS011;62776;50.518;6.732;2023-06-10T09:11:29;3.97;;;2.33;;
74344;SDS011;62776;50.518;6.732;2023-06-10T09:14:16;3.60;;;2.53;;
74344;SDS011;62776;50.518;6.732;2023-06-10T09:17:03;3.45;;;2.28;;
74344;SDS011;62776;50.518;6.732;2023-06-10T09:19:51;2.90;;;2.70;;
74344;SDS011;62776;50.518;6.732;2023-06-10T09:22:42;3.10;;;2.38;;
74344;SDS011;62776;50.518;6.732;2023-06-10T09:25:35;2.40;;;2.20;;
74344;SDS011;62776;50.518;6.732;2023-06-10T09:28:25;2.60;;;2.40;;
74344;SDS011;62776;50.518;6.732;2023-06-10T09:31:24;2.40;;;2.20;;
74344;SDS011;62776;50.518;6.732;2023-06-10T09:34:15;2.50;;;2.30;;
74344;SDS011;62776;50.518;6.732;2023-06-10T09:37:04;4.63;;;2.85;;
74344;SDS011;62776;50.518;6.732;2023-06-10T09:40:01;4.68;;;2.40;;
74344;SDS011;62776;50.518;6.732;2023-06-10T09:42:59;3.30;;;2.53;;
74344;SDS011;62776;50.518;6.732;2023-06-10T09:45:51;3.97;;;2.80;;
74344;SDS011;62776;50.518;6.732;2023-06-10T09:48:43;2.75;;;2.55;;
74344;SDS011;62776;50.518;6.732;2023-06-10T09:51:31;4.47;;;2.90;;
74344;SDS011;62776;50.518;6.732;2023-06-10T09:54:19;4.72;;;2.50;;
74344;SDS011;62776;50.518;6.732;2023-06-10T09:57:08;2.58;;;2.38;;
74344;SDS011;62776;50.518;6.732;2023-06-10T09:59:55;2.65;;;2.45;;
74344;SDS011;62776;50.518;6.732;2023-06-10T10:05:38;2.40;;;2.20;;
74344;SDS011;62776;50.518;6.732;2023-06-10T10:08:24;3.33;;;2.38;;
74344;SDS011;62776;50.518;6.732;2023-06-10T10:11:11;2.95;;;2.65;;
74344;SDS011;62776;50.518;6.732;2023-06-10T10:13:59;3.45;;;2.50;;
74344;SDS011;62776;50.518;6.732;2023-06-10T10:16:49;2.42;;;2.20;;
74344;SDS011;62776;50.518;6.732;2023-06-10T10:20:22;3.45;;;2.30;;
74344;SDS011;62776;50.518;6.732;2023-06-10T10:22:51;4.97;;;2.80;;
74344;SDS011;62776;50.518;6.732;2023-06-10T10:25:42;2.92;;;2.47;;
74344;SDS011;62776;50.518;6.732;2023-06-10T10:28:41;3.53;;;2.67;;
74344;SDS011;62776;50.518;6.732;2023-06-10T10:31:33;2.97;;;2.50;;
74344;SDS011;62776;50.518;6.732;2023-06-10T10:34:48;2.60;;;2.40;;
74344;SDS011;62776;50.518;6.732;2023-06-10T10:37:40;7.65;;;2.90;;
74344;SDS011;62776;50.518;6.732;2023-06-10T10:40:27;3.10;;;2.72;;
74344;SDS011;62776;50.518;6.732;2023-06-10T10:43:14;2.47;;;2.28;;
74344;SDS011;62776;50.518;6.732;2023-06-10T10:46:16;3.97;;;2.30;;
74344;SDS011;62776;50.518;6.732;2023-06-10T10:49:04;2.53;;;2.33;;
74344;SDS011;62776;50.518;6.732;2023-06-10T10:51:57;2.78;;;2.38;;
74344;SDS011;62776;50.518;6.732;2023-06-10T10:54:46;3.90;;;2.60;;
74344;SDS011;62776;50.518;6.732;2023-06-10T10:57:32;4.82;;;2.45;;
74344;SDS011;62776;50.518;6.732;2023-06-10T11:00:29;2.67;;;2.28;;
74344;SDS011;62776;50.518;6.732;2023-06-10T11:03:22;4.10;;;2.58;;
74344;SDS011;62776;50.518;6.732;2023-06-10T11:06:13;3.53;;;2.10;;
74344;SDS011;62776;50.518;6.732;2023-06-10T11:09:27;3.33;;;2.58;;
74344;SDS011;62776;50.518;6.732;2023-06-10T11:12:18;2.58;;;2.08;;
74344;SDS011;62776;50.518;6.732;2023-06-10T11:15:09;3.47;;;2.35;;
74344;SDS011;62776;50.518;6.732;2023-06-10T11:21:11;4.70;;;2.15;;
74344;SDS011;62776;50.518;6.732;2023-06-10T11:24:11;2.65;;;2.25;;
74344;SDS011;62776;50.518;6.732;2023-06-10T11:27:20;3.40;;;2.25;;
74344;SDS011;62776;50.518;6.732;2023-06-10T11:30:19;2.47;;;2.28;;
74344;SDS011;62776;50.518;6.732;2023-06-10T11:33:17;2.22;;;2.03;;
74344;SDS011;62776;50.518;6.732;2023-06-10T11:36:09;3.25;;;2.20;;
74344;SDS011;62776;50.518;6.732;2023-06-10T11:39:00;3.53;;;2.50;;
74344;SDS011;62776;50.518;6.732;2023-06-10T11:41:48;2.30;;;2.20;;
74344;SDS011;62776;50.518;6.732;2023-06-10T11:44:49;2.70;;;2.13;;
74344;SDS011;62776;50.518;6.732;2023-06-10T11:47:55;3.47;;;2.50;;
74344;SDS011;62776;50.518;6.732;2023-06-10T11:50:52;2.92;;;2.72;;
74344;SDS011;62776;50.518;6.732;2023-06-10T11:53:40;5.53;;;2.45;;
74344;SDS011;62776;50.518;6.732;2023-06-10T11:56:30;4.38;;;2.70;;
74344;SDS011;62776;50.518;6.732;2023-06-10T11:59:17;4.35;;;2.83;;
74344;SDS011;62776;50.518;6.732;2023-06-10T12:02:15;4.65;;;2.28;;
74344;SDS011;62776;50.518;6.732;2023-06-10T12:05:14;2.38;;;2.17;;
74344;SDS011;62776;50.518;6.732;2023-06-10T12:08:10;3.35;;;2.20;;
74344;SDS011;62776;50.518;6.732;2023-06-10T12:10:58;1.95;;;1.85;;
74344;SDS011;62776;50.518;6.732;2023-06-10T12:13:47;2.92;;;2.33;;
74344;SDS011;62776;50.518;6.732;2023-06-10T12:16:50;4.55;;;2.30;;
74344;SDS011;62776;50.518;6.732;2023-06-10T12:19:42;2.63;;;2.03;;
74344;SDS011;62776;50.518;6.732;2023-06-10T12:22:36;3.10;;;2.10;;
74344;SDS011;62776;50.518;6.732;2023-06-10T12:25:27;2.40;;;2.15;;
74344;SDS011;62776;50.518;6.732;2023-06-10T12:28:26;5.30;;;2.15;;
74344;SDS011;62776;50.518;6.732;2023-06-10T12:31:14;1.95;;;1.75;;
74344;SDS011;62776;50.518;6.732;2023-06-10T12:34:09;2.70;;;2.13;;
74344;SDS011;62776;50.518;6.732;2023-06-10T12:36:57;3.08;;;1.80;;
74344;SDS011;62776;50.518;6.732;2023-06-10T12:39:51;2.05;;;1.70;;
74344;SDS011;62776;50.518;6.732;2023-06-10T12:42:38;2.40;;;2.20;;
74344;SDS011;62776;50.518;6.732;2023-06-10T12:48:22;3.40;;;1.95;;
74344;SDS011;62776;50.518;6.732;2023-06-10T12:51:13;2.05;;;1.92;;
74344;SDS011;62776;50.518;6.732;2023-06-10T12:54:06;2.20;;;2.10;;
74344;SDS011;62776;50.518;6.732;2023-06-10T12:56:55;3.78;;;2.17;;
74344;SDS011;62776;50.518;6.732;2023-06-10T12:59:41;4.70;;;2.40;;
74344;SDS011;62776;50.518;6.732;2023-06-10T13:02:37;4.00;;;2.40;;
74344;SDS011;62776;50.518;6.732;2023-06-10T13:08:15;2.28;;;1.90;;
74344;SDS011;62776;50.518;6.732;2023-06-10T13:11:01;2.08;;;1.90;;
74344;SDS011;62776;50.518;6.732;2023-06-10T13:13:49;3.13;;;1.88;;
74344;SDS011;62776;50.518;6.732;2023-06-10T13:16:35;2.15;;;2.00;;
74344;SDS011;62776;50.518;6.732;2023-06-10T13:19:23;8.00;;;2.47;;
74344;SDS011;62776;50.518;6.732;2023-06-10T13:22:10;5.72;;;2.03;;
74344;SDS011;62776;50.518;6.732;2023-06-10T13:24:57;3.03;;;1.88;;
74344;SDS011;62776;50.518;6.732;2023-06-10T13:27:46;1.48;;;1.38;;
74344;SDS011;62776;50.518;6.732;2023-06-10T13:30:33;2.70;;;1.90;;
74344;SDS011;62776;50.518;6.732;2023-06-10T13:33:19;3.20;;;1.90;;
74344;SDS011;62776;50.518;6.732;2023-06-10T13:36:06;2.15;;;2.00;;
74344;SDS011;62776;50.518;6.732;2023-06-10T13:38:53;2.40;;;1.85;;
74344;SDS011;62776;50.518;6.732;2023-06-10T13:41:43;2.15;;;1.70;;
74344;SDS011;62776;50.518;6.732;2023-06-10T13:44:30;7.68;;;2.28;;
74344;SDS011;62776;50.518;6.732;2023-06-10T13:47:25;3.40;;;2.00;;
74344;SDS011;62776;50.518;6.732;2023-06-10T13:50:12;4.77;;;1.47;;
74344;SDS011;62776;50.518;6.732;2023-06-10T13:52:59;1.88;;;1.77;;
74344;SDS011;62776;50.518;6.732;2023-06-10T13:55:46;2.15;;;1.98;;
74344;SDS011;62776;50.518;6.732;2023-06-10T13:58:33;3.05;;;1.90;;
74344;SDS011;62776;50.518;6.732;2023-06-10T14:01:25;2.22;;;2.03;;
74344;SDS011;62776;50.518;6.732;2023-06-10T14:04:11;4.78;;;2.08;;
74344;SDS011;62776;50.518;6.732;2023-06-10T14:06:58;4.47;;;2.00;;
74344;SDS011;62776;50.518;6.732;2023-06-10T14:09:47;2.13;;;1.70;;
74344;SDS011;62776;50.518;6.732;2023-06-10T14:12:37;2.42;;;2.00;;
74344;SDS011;62776;50.518;6.732;2023-06-10T14:15:23;1.52;;;1.42;;
74344;SDS011;62776;50.518;6.732;2023-06-10T14:18:11;5.30;;;2.03;;
74344;SDS011;62776;50.518;6.732;2023-06-10T14:20:57;2.50;;;2.22;;
74344;SDS011;62776;50.518;6.732;2023-06-10T14:23:43;2.13;;;1.92;;
74344;SDS011;62776;50.518;6.732;2023-06-10T14:26:30;2.75;;;2.53;;
74344;SDS011;62776;50.518;6.732;2023-06-10T14:29:19;3.28;;;2.00;;
74344;SDS011;62776;50.518;6.732;2023-06-10T14:32:07;4.18;;;2.63;;
74344;SDS011;62776;50.518;6.732;2023-06-10T14:34:55;2.20;;;1.58;;
74344;SDS011;62776;50.518;6.732;2023-06-10T14:37:43;2.55;;;1.90;;
74344;SDS011;62776;50.518;6.732;2023-06-10T14:40:29;2.35;;;2.10;;
74344;SDS011;62776;50.518;6.732;2023-06-10T14:43:17;6.88;;;2.58;;
74344;SDS011;62776;50.518;6.732;2023-06-10T14:46:11;7.72;;;6.85;;
74344;SDS011;62776;50.518;6.732;2023-06-10T14:48:59;3.13;;;1.83;;
74344;SDS011;62776;50.518;6.732;2023-06-10T14:51:47;2.83;;;2.10;;
74344;SDS011;62776;50.518;6.732;2023-06-10T14:54:35;2.65;;;1.83;;
74344;SDS011;62776;50.518;6.732;2023-06-10T14:57:28;2.20;;;1.83;;
74344;SDS011;62776;50.518;6.732;2023-06-10T15:00:14;2.42;;;1.67;;
74344;SDS011;62776;50.518;6.732;2023-06-10T15:03:04;2.60;;;1.90;;
74344;SDS011;62776;50.518;6.732;2023-06-10T15:05:52;2.67;;;1.83;;
74344;SDS011;62776;50.518;6.732;2023-06-10T15:08:40;2.88;;;1.58;;
74344;SDS011;62776;50.518;6.732;2023-06-10T15:11:26;2.00;;;1.80;;
74344;SDS011;62776;50.518;6.732;2023-06-10T15:14:13;2.03;;;1.85;;
74344;SDS011;62776;50.518;6.732;2023-06-10T15:17:00;4.35;;;1.67;;
74344;SDS011;62776;50.518;6.732;2023-06-10T15:19:47;1.83;;;1.70;;
74344;SDS011;62776;50.518;6.732;2023-06-10T15:22:33;4.40;;;2.00;;
74344;SDS011;62776;50.518;6.732;2023-06-10T15:25:20;4.78;;;3.75;;
74344;SDS011;62776;50.518;6.732;2023-06-10T15:28:08;3.13;;;1.67;;
74344;SDS011;62776;50.518;6.732;2023-06-10T15:30:54;2.25;;;1.75;;
74344;SDS011;62776;50.518;6.732;2023-06-10T15:33:41;2.58;;;2.38;;
74344;SDS011;62776;50.518;6.732;2023-06-10T15:36:27;5.65;;;1.90;;
74344;SDS011;62776;50.518;6.732;2023-06-10T15:39:19;2.45;;;1.95;;
74344;SDS011;62776;50.518;6.732;2023-06-10T15:42:06;3.03;;;1.95;;
74344;SDS011;62776;50.518;6.732;2023-06-10T15:44:53;2.17;;;1.92;;
74344;SDS011;62776;50.518;6.732;2023-06-10T15:47:39;2.80;;;1.85;;
74344;SDS011;62776;50.518;6.732;2023-06-10T15:50:26;2.97;;;1.80;;
74344;SDS011;62776;50.518;6.732;2023-06-10T15:53:13;2.47;;;1.98;;
74344;SDS011;62776;50.518;6.732;2023-06-10T15:55:59;2.17;;;1.90;;
74344;SDS011;62776;50.518;6.732;2023-06-10T15:58:47;1.90;;;1.80;;
74344;SDS011;62776;50.518;6.732;2023-06-10T16:01:33;4.45;;;1.73;;
74344;SDS011;62776;50.518;6.732;2023-06-10T16:04:20;2.35;;;2.10;;
74344;SDS011;62776;50.518;6.732;2023-06-10T16:07:07;2.65;;;1.95;;
74344;SDS011;62776;50.518;6.732;2023-06-10T16:09:59;1.90;;;1.80;;
74344;SDS011;62776;50.518;6.732;2023-06-10T16:12:45;2.03;;;1.90;;
74344;SDS011;62776;50.518;6.732;2023-06-10T16:15:33;2.67;;;2.15;;
74344;SDS011;62776;50.518;6.732;2023-06-10T16:18:19;3.28;;;2.10;;
74344;SDS011;62776;50.518;6.732;2023-06-10T16:21:05;2.58;;;1.95;;
74344;SDS011;62776;50.518;6.732;2023-06-10T16:23:55;4.03;;;2.00;;
74344;SDS011;62776;50.518;6.732;2023-06-10T16:26:45;2.45;;;2.25;;
74344;SDS011;62776;50.518;6.732;2023-06-10T16:29:35;2.00;;;1.90;;
74344;SDS011;62776;50.518;6.732;2023-06-10T16:32:21;4.30;;;1.73;;
74344;SDS011;62776;50.518;6.732;2023-06-10T16:35:10;1.70;;;1.60;;
74344;SDS011;62776;50.518;6.732;2023-06-10T16:37:56;1.92;;;1.83;;
74344;SDS011;62776;50.518;6.732;2023-06-10T16:40:44;2.97;;;2.10;;
74344;SDS011;62776;50.518;6.732;2023-06-10T16:43:31;2.40;;;1.88;;
74344;SDS011;62776;50.518;6.732;2023-06-10T16:46:17;2.58;;;2.38;;
74344;SDS011;62776;50.518;6.732;2023-06-10T16:49:04;3.92;;;1.92;;
74344;SDS011;62776;50.518;6.732;2023-06-10T16:51:52;2.10;;;1.90;;
74344;SDS011;62776;50.518;6.732;2023-06-10T16:54:41;5.00;;;2.17;;
74344;SDS011;62776;50.518;6.732;2023-06-10T16:57:29;2.35;;;2.15;;
74344;SDS011;62776;50.518;6.732;2023-06-10T17:00:17;2.35;;;2.00;;
74344;SDS011;62776;50.518;6.732;2023-06-10T17:03:04;4.20;;;1.80;;
74344;SDS011;62776;50.518;6.732;2023-06-10T17:05:50;4.45;;;2.28;;
74344;SDS011;62776;50.518;6.732;2023-06-10T17:08:36;3.00;;;1.95;;
74344;SDS011;62776;50.518;6.732;2023-06-10T17:11:24;2.92;;;2.15;;
74344;SDS011;62776;50.518;6.732;2023-06-10T17:14:12;3.85;;;2.00;;
74344;SDS011;62776;50.518;6.732;2023-06-10T17:16:58;2.38;;;2.00;;
74344;SDS011;62776;50.518;6.732;2023-06-10T17:19:45;2.58;;;2.05;;